Time;durP1;ratioP1;P1;durP2;ratioP2;P2;SDS_P1;SDS_P2;PMS_P1;PMS_P2;Temp;Humidity;BMP_temperature;BMP_pressure;BME280_temperature;BME280_humidity;BME280_pressure;Samples;Min_cycle;Max_cycle;Signal;HPM_P1;HPM_P2
2021/04/03 00:00:54;;;;;;;89.35;37.03;;;;;;;-0.25;87.38;98751.16;3554218;27;20054;-50
2021/04/03 00:02:36;;;;;;;97.55;39.53;;;;;;;-0.25;87.15;98753.69;3550730;27;20075;-48
2021/04/03 00:04:18;;;;;;;132.52;50.33;;;;;;;-0.26;87.06;98754.53;3552671;27;20051;-48
2021/04/03 00:05:59;;;;;;;123.65;45.55;;;;;;;-0.27;86.88;98747.69;3553199;27;20047;-49
2021/04/03 00:07:41;;;;;;;162.50;61.90;;;;;;;-0.31;87.13;98754.31;3553315;27;20046;-48
2021/04/03 00:09:22;;;;;;;242.60;82.57;;;;;;;-0.33;87.21;98745.75;3539605;28;20055;-48
2021/04/03 00:11:05;;;;;;;187.70;70.47;;;;;;;-0.37;87.24;98741.34;3550008;27;20071;-49
2021/04/03 00:12:47;;;;;;;147.10;55.97;;;;;;;-0.43;87.17;98749.59;3554154;27;20070;-48
2021/04/03 00:14:28;;;;;;;129.05;48.50;;;;;;;-0.46;87.54;98746.94;3549352;27;20050;-50
2021/04/03 00:16:10;;;;;;;114.35;47.55;;;;;;;-0.50;87.32;98747.63;3551652;27;20533;-49
2021/04/03 00:17:52;;;;;;;112.05;44.40;;;;;;;-0.54;87.66;98751.69;3553469;27;20062;-48
2021/04/03 00:19:33;;;;;;;123.38;49.67;;;;;;;-0.57;87.90;98751.56;3550491;27;20051;-48
2021/04/03 00:21:15;;;;;;;94.53;40.30;;;;;;;-0.58;88.26;98752.34;3539441;28;20054;-48
2021/04/03 00:22:57;;;;;;;105.38;44.40;;;;;;;-0.59;88.53;98755.72;3546538;27;20039;-49
2021/04/03 00:24:38;;;;;;;93.80;40.75;;;;;;;-0.58;88.36;98747.25;3553876;27;20057;-50
2021/04/03 00:26:19;;;;;;;107.97;43.05;;;;;;;-0.58;88.48;98744.72;3551795;27;20061;-48
2021/04/03 00:28:01;;;;;;;86.18;39.80;;;;;;;-0.55;88.53;98749.09;3551870;27;20123;-48
2021/04/03 00:29:43;;;;;;;87.65;38.55;;;;;;;-0.53;88.75;98753.44;3554523;27;20142;-48
2021/04/03 00:31:24;;;;;;;95.22;37.53;;;;;;;-0.51;88.71;98750.09;3549957;27;20568;-48
2021/04/03 00:33:07;;;;;;;88.68;37.20;;;;;;;-0.50;88.63;98752.72;3539530;28;20047;-48
2021/04/03 00:34:49;;;;;;;90.07;36.20;;;;;;;-0.48;88.68;98751.09;3546651;27;20054;-48
2021/04/03 00:36:30;;;;;;;84.15;37.72;;;;;;;-0.47;88.67;98744.31;3553934;27;20050;-48
2021/04/03 00:38:13;;;;;;;81.93;34.50;;;;;;;-0.46;88.47;98748.63;3548946;27;20050;-49
2021/04/03 00:39:54;;;;;;;77.00;35.05;;;;;;;-0.46;88.49;98746.94;3551413;27;20622;-49
2021/04/03 00:41:35;;;;;;;89.65;35.45;;;;;;;-0.45;88.80;98742.69;3551386;27;20046;-49
2021/04/03 00:43:19;;;;;;;75.30;34.08;;;;;;;-0.45;88.40;98750.34;3551640;27;20077;-49
2021/04/03 00:45:00;;;;;;;78.78;32.55;;;;;;;-0.49;87.90;98745.94;3539298;28;20043;-49
2021/04/03 00:46:41;;;;;;;82.68;34.03;;;;;;;-0.49;88.04;98751.03;3547711;27;20069;-48
2021/04/03 00:48:23;;;;;;;77.55;31.65;;;;;;;-0.51;88.04;98750.09;3553476;27;20051;-48
2021/04/03 00:50:06;;;;;;;80.75;34.92;;;;;;;-0.50;88.36;98756.91;3550447;27;20058;-52
2021/04/03 00:51:48;;;;;;;74.53;33.22;;;;;;;-0.50;88.31;98755.25;3551197;27;20047;-51
2021/04/03 00:53:31;;;;;;;71.63;30.40;;;;;;;-0.50;88.10;98749.25;3552157;27;20047;-50
2021/04/03 00:55:13;;;;;;;68.63;31.10;;;;;;;-0.49;88.23;98754.44;3550033;27;20049;-51
2021/04/03 00:56:55;;;;;;;75.75;31.17;;;;;;;-0.49;88.14;98751.88;3553284;27;20061;-53
2021/04/03 00:58:36;;;;;;;66.63;30.83;;;;;;;-0.48;88.35;98750.19;3549924;27;20049;-50
2021/04/03 01:00:18;;;;;;;74.63;31.90;;;;;;;-0.47;88.38;98757.03;3552795;27;20527;-50
2021/04/03 01:02:00;;;;;;;76.55;30.52;;;;;;;-0.46;88.54;98746.06;3560674;27;20051;-51
2021/04/03 01:03:42;;;;;;;66.22;30.52;;;;;;;-0.45;88.31;98752.88;3551217;27;20507;-51
2021/04/03 01:05:27;;;;;;;73.20;31.40;;;;;;;-0.45;88.27;98755.44;3553184;27;20499;-51
2021/04/03 01:07:08;;;;;;;72.32;32.72;;;;;;;-0.45;88.08;98757.97;3549657;27;20043;-51
2021/04/03 01:08:49;;;;;;;81.60;33.72;;;;;;;-0.44;88.50;98754.63;3553612;27;20050;-52
2021/04/03 01:10:33;;;;;;;79.65;33.25;;;;;;;-0.43;88.63;98748.72;3549885;27;20055;-51
2021/04/03 01:12:27;;;;;;;72.00;31.25;;;;;;;-0.44;88.53;98755.50;3551097;27;20495;-51
2021/04/03 01:14:12;;;;;;;70.95;30.45;;;;;;;-0.43;88.74;98754.72;3549865;27;20479;-52
2021/04/03 01:16:01;;;;;;;71.25;31.85;;;;;;;-0.43;88.61;98756.34;3549427;27;20423;-51
2021/04/03 01:17:56;;;;;;;61.53;31.08;;;;;;;-0.42;88.57;98758.13;3553491;27;20042;-52
2021/04/03 01:20:02;;;;;;;71.85;32.47;;;;;;;-0.41;88.70;98759.84;3550278;27;20058;-51
2021/04/03 01:22:04;;;;;;;75.18;33.13;;;;;;;-0.45;88.03;98756.28;3551734;27;20503;-50
2021/04/03 01:24:07;;;;;;;78.50;32.75;;;;;;;-0.50;87.85;98755.25;3552661;27;20043;-51
2021/04/03 01:26:07;;;;;;;82.90;33.60;;;;;;;-0.53;88.21;98758.53;3551751;27;20452;-51
2021/04/03 01:28:01;;;;;;;85.90;35.40;;;;;;;-0.52;88.52;98759.38;3549422;27;20412;-54
2021/04/03 01:29:47;;;;;;;74.28;34.85;;;;;;;-0.53;88.42;98752.56;3552676;27;20512;-51
2021/04/03 01:31:30;;;;;;;87.30;33.70;;;;;;;-0.55;88.17;98757.59;3550040;27;20050;-52
2021/04/03 01:33:14;;;;;;;82.43;33.35;;;;;;;-0.56;87.92;98755.84;3549861;27;20054;-51
2021/04/03 01:34:59;;;;;;;82.28;33.90;;;;;;;-0.56;87.91;98749.88;3552251;27;20081;-51
2021/04/03 01:36:43;;;;;;;91.25;37.10;;;;;;;-0.57;88.10;98749.03;3549377;27;20049;-51
2021/04/03 01:38:31;;;;;;;89.25;36.45;;;;;;;-0.57;87.91;98754.13;3553191;27;20051;-51
2021/04/03 01:40:16;;;;;;;86.10;36.67;;;;;;;-0.57;88.19;98756.66;3549347;27;20081;-53
2021/04/03 01:42:03;;;;;;;81.47;34.95;;;;;;;-0.58;88.25;98754.91;3551792;27;20054;-53
2021/04/03 01:43:49;;;;;;;88.95;36.95;;;;;;;-0.58;88.29;98754.91;3552715;27;20131;-53
2021/04/03 01:45:32;;;;;;;81.82;35.22;;;;;;;-0.58;88.22;98754.03;3549359;27;20050;-50
2021/04/03 01:47:15;;;;;;;79.93;35.88;;;;;;;-0.58;88.37;98754.03;3552754;27;20423;-52
2021/04/03 01:48:57;;;;;;;83.50;34.70;;;;;;;-0.58;88.03;98747.25;3549317;27;20047;-51
2021/04/03 01:50:39;;;;;;;82.15;34.92;;;;;;;-0.60;87.92;98748.88;3551760;27;20047;-54
2021/04/03 01:52:24;;;;;;;89.78;35.28;;;;;;;-0.61;87.73;98754.78;3550435;27;20054;-51
2021/04/03 01:54:10;;;;;;;80.80;35.90;;;;;;;-0.64;87.78;98754.66;3550731;27;20050;-55
2021/04/03 01:55:53;;;;;;;88.22;34.83;;;;;;;-0.68;87.23;98755.31;3551577;27;20074;-51
2021/04/03 01:57:36;;;;;;;87.32;37.90;;;;;;;-0.72;87.69;98746.66;3551775;27;20038;-51
2021/04/03 01:59:18;;;;;;;96.60;37.50;;;;;;;-0.73;87.50;98751.69;3552234;27;20528;-53
2021/04/03 02:01:00;;;;;;;91.15;36.17;;;;;;;-0.76;87.87;98749.91;3549081;27;20074;-51
2021/04/03 02:02:42;;;;;;;90.90;35.65;;;;;;;-0.77;88.01;98747.28;3550942;27;20096;-51
2021/04/03 02:04:25;;;;;;;89.35;34.80;;;;;;;-0.80;87.42;98752.22;3551171;27;20054;-51
2021/04/03 02:06:07;;;;;;;83.20;34.40;;;;;;;-0.86;87.47;98746.88;3549015;27;20103;-52
2021/04/03 02:07:50;;;;;;;83.35;33.17;;;;;;;-0.89;88.00;98744.19;3552709;27;20082;-51
2021/04/03 02:09:32;;;;;;;86.28;35.03;;;;;;;-0.92;88.16;98737.31;3549401;27;20049;-51
2021/04/03 02:11:15;;;;;;;86.85;34.92;;;;;;;-0.95;88.54;98738.03;3551907;27;20374;-51
2021/04/03 02:12:56;;;;;;;82.63;32.78;;;;;;;-0.93;89.08;98738.97;3549411;27;20059;-51
2021/04/03 02:14:38;;;;;;;78.85;33.20;;;;;;;-0.94;89.31;98739.78;3550138;27;20042;-52
2021/04/03 02:16:22;;;;;;;78.43;31.60;;;;;;;-0.94;89.27;98739.78;3552304;27;20050;-52
2021/04/03 02:18:05;;;;;;;86.05;33.00;;;;;;;-0.92;89.32;98737.31;3549247;27;20054;-52
2021/04/03 02:19:47;;;;;;;79.57;33.30;;;;;;;-0.91;89.37;98731.41;3552494;27;20047;-53
2021/04/03 02:21:28;;;;;;;80.72;33.55;;;;;;;-0.90;89.29;98730.59;3550001;27;20055;-52
2021/04/03 02:23:10;;;;;;;69.05;30.27;;;;;;;-0.90;89.38;98730.59;3551825;27;20046;-52
2021/04/03 02:24:51;;;;;;;82.75;31.50;;;;;;;-0.91;89.13;98731.41;3551904;27;20046;-50
2021/04/03 02:26:34;;;;;;;70.30;29.98;;;;;;;-0.94;88.82;98729.59;3551019;27;20066;-52
2021/04/03 02:28:15;;;;;;;81.38;30.52;;;;;;;-0.94;88.70;98733.81;3552328;27;20138;-52
2021/04/03 02:29:57;;;;;;;69.47;30.92;;;;;;;-0.95;88.87;98732.94;3549101;27;20054;-50
2021/04/03 02:31:39;;;;;;;70.75;30.10;;;;;;;-0.94;88.84;98737.25;3552583;27;20047;-51
2021/04/03 02:33:21;;;;;;;79.78;31.90;;;;;;;-0.96;88.54;98733.75;3548858;27;20047;-53
2021/04/03 02:35:03;;;;;;;83.03;32.67;;;;;;;-0.99;88.42;98741.25;3551886;27;20082;-53
2021/04/03 02:36:54;;;;;;;70.32;28.23;;;;;;;-0.99;88.70;98735.31;3550823;27;20050;-54
2021/04/03 02:38:35;;;;;;;69.53;28.90;;;;;;;-0.99;88.76;98731.06;3550062;27;20046;-51
2021/04/03 02:40:19;;;;;;;66.85;29.42;;;;;;;-0.98;88.96;98732.81;3564399;27;20426;-51
2021/04/03 02:42:05;;;;;;;80.45;31.63;;;;;;;-0.97;88.81;98733.69;3553387;27;20043;-54
2021/04/03 02:43:51;;;;;;;75.05;29.98;;;;;;;-0.96;88.64;98732.88;3552556;27;20051;-52
2021/04/03 02:45:37;;;;;;;71.38;28.45;;;;;;;-0.95;88.57;98732.09;3549625;27;20514;-48
2021/04/03 02:47:23;;;;;;;67.07;27.52;;;;;;;-0.96;88.43;98735.41;3549603;27;20058;-47
2021/04/03 02:49:12;;;;;;;50.97;21.70;;;;;;;-0.98;88.70;98735.34;3551461;27;20053;-48
2021/04/03 02:50:55;;;;;;;44.65;19.95;;;;;;;-0.95;88.53;98734.63;3548803;27;20055;-48
2021/04/03 02:52:39;;;;;;;50.47;22.13;;;;;;;-0.94;88.54;98737.25;3552439;27;20047;-48
2021/04/03 02:54:22;;;;;;;52.03;22.35;;;;;;;-0.94;88.50;98733.81;3551101;27;20042;-47
2021/04/03 02:56:06;;;;;;;43.87;20.10;;;;;;;-0.91;88.39;98728.84;3549883;27;20354;-47
2021/04/03 02:57:49;;;;;;;45.72;20.17;;;;;;;-0.88;88.61;98733.22;3550928;27;20283;-48
2021/04/03 02:59:34;;;;;;;39.97;19.50;;;;;;;-0.84;88.53;98732.53;3549397;27;20051;-49
2021/04/03 03:01:16;;;;;;;39.00;17.25;;;;;;;-0.80;88.31;98737.84;3552100;27;20131;-48
2021/04/03 03:03:00;;;;;;;40.42;17.45;;;;;;;-0.75;88.38;98726.19;3548440;27;20073;-49
2021/04/03 03:04:42;;;;;;;;;;;;;;;-0.70;87.99;98730.59;3551992;27;20050;-47
2021/04/03 03:06:24;;;;;;;32.58;15.32;;;;;;;-0.67;87.76;98736.69;3551685;27;19946;-48
2021/04/03 03:08:06;;;;;;;29.20;14.57;;;;;;;-0.64;87.67;98743.56;3551689;27;20067;-48
2021/04/03 03:09:49;;;;;;;37.88;16.45;;;;;;;-0.62;87.32;98735.22;3554508;27;20055;-48
2021/04/03 03:11:32;;;;;;;36.47;15.88;;;;;;;-0.61;87.19;98736.94;3550981;27;20070;-48
2021/04/03 03:13:17;;;;;;;32.20;13.38;;;;;;;-0.58;87.16;98742.16;3553158;27;20061;-48
2021/04/03 03:15:01;;;;;;;27.40;12.60;;;;;;;-0.57;87.21;98743.94;3551253;27;20084;-47
2021/04/03 03:16:42;;;;;;;;;;;;;;;-0.54;86.99;98738.06;3553866;27;20050;-48
2021/04/03 03:18:25;;;;;;;42.20;17.55;;;;;;;-0.52;86.98;98739.00;3554651;27;19923;-47
2021/04/03 03:20:08;;;;;;;40.33;17.30;;;;;;;-0.51;86.95;98737.34;3552114;27;20043;-48
2021/04/03 03:21:50;;;;;;;44.40;19.80;;;;;;;-0.54;86.75;98738.06;3567865;27;20494;-49
2021/04/03 03:23:31;;;;;;;45.97;20.17;;;;;;;-0.55;86.53;98737.22;3555757;27;20050;-48
2021/04/03 03:25:14;;;;;;;39.88;17.95;;;;;;;-0.56;86.48;98732.06;3554407;27;20139;-47
2021/04/03 03:26:56;;;;;;;43.97;17.98;;;;;;;-0.57;86.26;98740.50;3552914;27;20496;-48
2021/04/03 03:28:40;;;;;;;45.20;18.92;;;;;;;-0.59;86.27;98743.00;3552863;27;20070;-46
2021/04/03 03:30:23;;;;;;;47.00;19.60;;;;;;;-0.61;86.29;98747.13;3552390;27;20051;-48
2021/04/03 03:32:05;;;;;;;47.10;19.00;;;;;;;-0.66;86.02;98738.44;3550740;27;20050;-47
2021/04/03 03:33:47;;;;;;;46.13;18.80;;;;;;;-0.68;86.02;98739.16;3554368;27;20046;-47
2021/04/03 03:35:29;;;;;;;41.55;18.52;;;;;;;-0.72;85.61;98733.94;3550663;27;20506;-47
2021/04/03 03:37:11;;;;;;;40.40;17.80;;;;;;;-0.75;85.98;98732.94;3554461;27;20073;-47
2021/04/03 03:38:54;;;;;;;44.22;18.33;;;;;;;-0.75;86.26;98738.03;3553053;27;20043;-47
2021/04/03 03:40:36;;;;;;;39.08;17.60;;;;;;;-0.75;86.56;98736.38;3552216;27;20057;-47
2021/04/03 03:42:18;;;;;;;44.50;18.23;;;;;;;-0.75;86.08;98740.56;3552512;27;20419;-48
2021/04/03 03:44:01;;;;;;;38.22;17.00;;;;;;;-0.76;86.20;98732.06;3552982;27;20490;-47
2021/04/03 03:45:43;;;;;;;39.95;18.00;;;;;;;-0.75;86.40;98738.03;3540142;28;20039;-47
2021/04/03 03:47:24;;;;;;;36.65;17.20;;;;;;;-0.75;86.30;98738.03;3547245;27;20046;-47
2021/04/03 03:49:06;;;;;;;43.42;18.83;;;;;;;-0.75;86.17;98738.03;3554281;27;20046;-47
2021/04/03 03:50:47;;;;;;;39.40;17.73;;;;;;;-0.75;86.29;98735.47;3550054;27;20099;-51
2021/04/03 03:52:29;;;;;;;43.05;18.08;;;;;;;-0.74;86.34;98729.59;3551575;27;20077;-53
2021/04/03 03:54:10;;;;;;;35.28;16.52;;;;;;;-0.73;86.18;98728.78;3553876;27;20138;-51
2021/04/03 03:55:53;;;;;;;40.70;18.70;;;;;;;-0.72;86.50;98731.38;3550700;27;20104;-52
2021/04/03 03:57:34;;;;;;;37.70;17.27;;;;;;;-0.69;86.26;98732.31;3554480;27;20527;-52
2021/04/03 03:59:16;;;;;;;35.25;17.02;;;;;;;-0.69;86.03;98734.88;3550624;27;20499;-47
2021/04/03 04:00:57;;;;;;;38.33;18.48;;;;;;;-0.67;86.06;98734.16;3554007;27;20054;-47
2021/04/03 04:02:38;;;;;;;38.67;19.05;;;;;;;-0.65;86.00;98744.41;3549749;27;20089;-49
2021/04/03 04:04:21;;;;;;;43.78;21.52;;;;;;;-0.68;86.08;98742.56;3552106;27;20099;-47
2021/04/03 04:06:02;;;;;;;52.15;23.20;;;;;;;-0.69;86.35;98740.84;3552397;27;20518;-48
2021/04/03 04:07:44;;;;;;;48.95;23.80;;;;;;;-0.68;86.90;98742.56;3553003;27;20043;-46
2021/04/03 04:09:26;;;;;;;52.83;24.88;;;;;;;-0.69;87.02;98740.84;3539785;28;20099;-47
2021/04/03 04:11:07;;;;;;;51.38;23.30;;;;;;;-0.63;87.29;98742.78;3546923;27;20042;-47
2021/04/03 04:12:49;;;;;;;52.08;24.38;;;;;;;-0.61;87.36;98747.13;3554317;27;20054;-46
2021/04/03 04:14:32;;;;;;;48.30;23.58;;;;;;;-0.58;87.51;98744.72;3550210;27;20046;-48
2021/04/03 04:16:13;;;;;;;51.38;23.40;;;;;;;-0.54;87.75;98749.13;3551842;27;20043;-47
2021/04/03 04:17:54;;;;;;;45.97;22.25;;;;;;;-0.49;87.79;98745.94;3552823;27;20047;-48
2021/04/03 04:19:37;;;;;;;55.30;24.35;;;;;;;-0.45;87.87;98748.66;3550416;27;20095;-47
2021/04/03 04:21:18;;;;;;;44.90;21.48;;;;;;;-0.40;87.44;98743.75;3539452;28;20051;-47
2021/04/03 04:23:00;;;;;;;55.88;24.55;;;;;;;-0.36;87.77;98740.53;3546830;27;20047;-48
2021/04/03 04:24:41;;;;;;;51.60;24.50;;;;;;;-0.31;87.77;98740.72;3553818;27;20411;-47
2021/04/03 04:26:26;;;;;;;57.38;24.77;;;;;;;-0.27;87.72;98747.69;3551922;27;20106;-48
2021/04/03 04:28:07;;;;;;;52.10;25.50;;;;;;;-0.24;87.68;98750.38;3551308;27;20563;-47
2021/04/03 04:29:48;;;;;;;49.75;24.35;;;;;;;-0.19;87.37;98748.88;3552977;27;20058;-49
2021/04/03 04:31:30;;;;;;;40.75;18.83;;;;;;;-0.15;87.32;98755.84;3550266;27;20055;-50
2021/04/03 04:33:11;;;;;;;49.58;23.30;;;;;;;-0.11;87.32;98747.53;3553971;27;20058;-48
2021/04/03 04:34:53;;;;;;;48.58;22.90;;;;;;;-0.07;87.04;98748.53;3551074;27;20464;-47
2021/04/03 04:36:35;;;;;;;49.80;24.42;;;;;;;-0.02;87.38;98757.22;3553151;27;20042;-48
2021/04/03 04:38:16;;;;;;;45.53;21.75;;;;;;;0.04;87.07;98754.91;3550648;27;20074;-47
2021/04/03 04:39:57;;;;;;;43.35;20.58;;;;;;;0.10;87.14;98757.72;3551637;27;20078;-47
2021/04/03 04:41:39;;;;;;;41.70;19.50;;;;;;;0.18;86.67;98755.47;3551134;27;20047;-48
2021/04/03 04:43:21;;;;;;;40.15;19.50;;;;;;;0.23;86.49;98749.72;3550208;27;20062;-48
2021/04/03 04:45:03;;;;;;;38.92;18.00;;;;;;;0.32;86.30;98756.00;3539483;28;20111;-48
2021/04/03 04:46:45;;;;;;;37.78;17.70;;;;;;;0.38;86.19;98744.38;3546584;27;20054;-46
2021/04/03 04:48:26;;;;;;;32.58;15.88;;;;;;;0.45;85.75;98755.66;3552804;27;20066;-47
2021/04/03 04:50:10;;;;;;;29.05;13.82;;;;;;;0.51;85.77;98760.16;3551477;27;20099;-48
2021/04/03 04:51:51;;;;;;;21.40;12.02;;;;;;;0.58;85.32;98750.25;3551278;27;20043;-47
2021/04/03 04:53:32;;;;;;;22.77;11.68;;;;;;;0.65;84.49;98756.47;3552745;27;20054;-47
2021/04/03 04:55:15;;;;;;;22.10;9.55;;;;;;;0.69;84.08;98758.31;3550926;27;20087;-48
2021/04/03 04:56:56;;;;;;;21.70;9.43;;;;;;;0.72;83.88;98758.44;3553342;27;20419;-46
2021/04/03 04:58:38;;;;;;;16.13;8.75;;;;;;;0.75;83.63;98758.56;3552202;27;20045;-49
2021/04/03 05:00:21;;;;;;;14.60;7.38;;;;;;;0.82;82.88;98763.88;3553067;27;20126;-50
2021/04/03 05:02:03;;;;;;;14.18;7.55;;;;;;;0.82;82.54;98756.22;3552474;27;20053;-51
2021/04/03 05:03:44;;;;;;;13.48;7.47;;;;;;;0.87;82.57;98763.22;3549711;27;20051;-50
2021/04/03 05:05:26;;;;;;;13.35;6.00;;;;;;;0.94;82.40;98756.66;3552097;27;20554;-51
2021/04/03 05:07:07;;;;;;;13.32;6.07;;;;;;;1.04;82.32;98760.44;3552084;27;20065;-53
2021/04/03 05:08:49;;;;;;;11.52;6.55;;;;;;;1.11;82.10;98755.59;3553368;27;20503;-51
2021/04/03 05:10:30;;;;;;;12.60;7.03;;;;;;;1.15;81.67;98760.00;3549799;27;20042;-49
2021/04/03 05:12:12;;;;;;;13.20;6.65;;;;;;;1.17;81.17;98753.25;3552784;27;20054;-50
2021/04/03 05:13:53;;;;;;;13.15;7.28;;;;;;;1.27;80.75;98761.28;3548819;27;20070;-55
2021/04/03 05:15:34;;;;;;;14.75;7.18;;;;;;;1.39;80.95;98759.16;3551201;27;20189;-54
2021/04/03 05:17:16;;;;;;;14.63;6.95;;;;;;;1.51;81.15;98754.47;3552005;27;20518;-54
2021/04/03 05:18:57;;;;;;;9.57;6.03;;;;;;;1.63;80.49;98748.88;3549363;27;20046;-54
2021/04/03 05:20:39;;;;;;;15.25;6.90;;;;;;;1.73;79.90;98747.53;3553424;27;20081;-49
2021/04/03 05:22:21;;;;;;;14.82;6.80;;;;;;;1.83;79.45;98744.47;3549795;27;20051;-50
2021/04/03 05:24:03;;;;;;;11.50;6.85;;;;;;;1.94;79.00;98740.56;3552612;27;20074;-51
2021/04/03 05:25:45;;;;;;;12.23;6.65;;;;;;;2.07;78.12;98739.25;3550101;27;20043;-48
2021/04/03 05:27:27;;;;;;;12.02;5.68;;;;;;;2.19;78.11;98737.94;3551061;27;20049;-49
2021/04/03 05:29:08;;;;;;;13.38;6.95;;;;;;;2.29;77.57;98735.72;3553453;27;20078;-49
2021/04/03 05:30:49;;;;;;;13.68;7.20;;;;;;;2.40;77.32;98735.19;3549571;27;20105;-51
2021/04/03 05:32:31;;;;;;;13.57;6.57;;;;;;;2.50;77.21;98740.63;3553090;27;20070;-50
2021/04/03 05:34:12;;;;;;;15.07;6.80;;;;;;;2.61;77.72;98740.94;3549664;27;20072;-51
2021/04/03 05:35:54;;;;;;;19.77;7.63;;;;;;;2.76;78.21;98735.41;3552987;27;20050;-53
2021/04/03 05:37:35;;;;;;;14.20;7.95;;;;;;;2.92;77.87;98736.72;3549944;27;20090;-48
2021/04/03 05:39:17;;;;;;;16.92;8.30;;;;;;;3.06;76.55;98743.09;3550908;27;20138;-48
2021/04/03 05:40:58;;;;;;;17.92;8.48;;;;;;;3.17;75.45;98733.19;3551681;27;20050;-49
2021/04/03 05:42:45;;;;;;;17.85;9.77;;;;;;;3.25;74.41;98743.63;3549381;27;20046;-48
2021/04/03 05:44:28;;;;;;;18.65;9.77;;;;;;;3.25;73.80;98743.63;3552625;27;20500;-48
2021/04/03 05:46:10;;;;;;;22.23;10.55;;;;;;;3.32;75.48;98750.66;3549093;27;20046;-49
2021/04/03 05:47:52;;;;;;;20.42;10.50;;;;;;;3.35;73.38;98753.31;3552673;27;20051;-52
2021/04/03 05:49:34;;;;;;;21.13;10.45;;;;;;;3.40;74.03;98756.88;3550995;27;20058;-49
2021/04/03 05:51:17;;;;;;;17.83;10.40;;;;;;;3.41;73.61;98753.47;3551291;27;20043;-49
2021/04/03 05:52:59;;;;;;;17.75;8.60;;;;;;;3.43;73.23;98762.06;3551481;27;20089;-50
2021/04/03 05:54:40;;;;;;;17.25;8.45;;;;;;;3.50;73.72;98757.13;3549322;27;20491;-48
2021/04/03 05:56:22;;;;;;;16.90;9.05;;;;;;;3.49;72.45;98752.81;3552877;27;20061;-48
2021/04/03 05:58:04;;;;;;;16.17;9.02;;;;;;;3.56;73.95;98754.69;3549233;27;20088;-49
2021/04/03 05:59:45;;;;;;;17.65;9.00;;;;;;;3.69;74.75;98755.91;3552132;27;20419;-49
2021/04/03 06:01:26;;;;;;;18.98;9.60;;;;;;;3.84;74.16;98761.41;3549766;27;20074;-48
2021/04/03 06:03:08;;;;;;;19.00;9.43;;;;;;;4.01;74.80;98764.44;3549853;27;20053;-49
2021/04/03 06:04:52;;;;;;;17.90;10.10;;;;;;;4.17;73.17;98770.81;3552195;27;20047;-53
2021/04/03 06:06:35;;;;;;;15.23;8.63;;;;;;;4.25;72.03;98776.13;3549297;27;20050;-53
2021/04/03 06:08:16;;;;;;;26.97;10.17;;;;;;;4.32;72.15;98770.28;3552893;27;20126;-50
2021/04/03 06:09:59;;;;;;;18.50;9.10;;;;;;;4.37;70.94;98761.91;3549408;27;20094;-51
2021/04/03 06:11:45;;;;;;;22.00;10.60;;;;;;;4.45;72.79;98767.19;3552476;27;20043;-53
2021/04/03 06:13:26;;;;;;;24.55;11.10;;;;;;;4.52;69.76;98761.38;3549234;27;20078;-54
2021/04/03 06:15:11;;;;;;;16.20;9.65;;;;;;;4.53;69.92;98764.78;3550490;27;20053;-52
2021/04/03 06:16:53;;;;;;;18.95;10.13;;;;;;;4.58;71.10;98763.22;3566102;27;20089;-56
2021/04/03 06:18:34;;;;;;;19.65;10.15;;;;;;;4.59;68.86;98763.25;3556043;27;20354;-51
2021/04/03 06:20:16;;;;;;;18.23;10.32;;;;;;;4.68;70.72;98767.72;3552534;27;20047;-54
2021/04/03 06:22:00;;;;;;;20.58;10.35;;;;;;;4.78;70.66;98769.66;3549065;27;20045;-55
2021/04/03 06:23:41;;;;;;;19.08;10.07;;;;;;;4.96;70.45;98766.63;3550884;27;20054;-53
2021/04/03 06:25:22;;;;;;;18.55;9.75;;;;;;;5.19;71.38;98763.69;3552985;27;20043;-54
2021/04/03 06:27:07;;;;;;;17.02;8.80;;;;;;;5.39;68.87;98764.06;3551149;27;20103;-52
2021/04/03 06:28:48;;;;;;;18.45;8.90;;;;;;;5.43;66.88;98762.41;3552546;27;20099;-54
2021/04/03 06:30:31;;;;;;;16.42;8.65;;;;;;;5.44;65.00;98766.75;3551155;27;20046;-56
2021/04/03 06:32:23;;;;;;;19.60;9.35;;;;;;;5.49;67.01;98772.84;3552759;27;20070;-55
2021/04/03 06:34:07;;;;;;;17.13;9.05;;;;;;;5.55;66.46;98778.97;3549042;27;20070;-57
2021/04/03 06:36:05;;;;;;;21.33;10.80;;;;;;;5.59;64.92;98779.00;3550323;27;20108;-54
2021/04/03 06:37:47;;;;;;;20.83;10.10;;;;;;;5.67;64.68;98782.59;3538079;28;20090;-53
2021/04/03 06:39:29;;;;;;;17.70;8.55;;;;;;;5.69;64.04;98794.66;3545461;27;20091;-54
2021/04/03 06:41:22;;;;;;;19.92;9.13;;;;;;;5.68;64.30;98798.06;3552242;27;20050;-55
2021/04/03 06:43:04;;;;;;;18.65;7.88;;;;;;;5.75;65.25;98787.06;3552588;27;20046;-54
2021/04/03 06:44:45;;;;;;;12.60;7.38;;;;;;;5.81;63.42;98795.75;3551723;27;20077;-54
2021/04/03 06:46:27;;;;;;;12.90;7.68;;;;;;;5.84;63.26;98788.94;3554564;27;20043;-55
2021/04/03 06:48:09;;;;;;;13.98;7.93;;;;;;;5.98;64.89;98788.28;3551427;27;20101;-51
2021/04/03 06:49:50;;;;;;;14.85;7.85;;;;;;;6.18;64.58;98792.09;3554903;27;20077;-53
2021/04/03 06:51:35;;;;;;;;;;;;;;;6.35;62.64;98802.69;3554085;27;20047;-55
2021/04/03 06:53:18;;;;;;;21.30;8.40;;;;;;;6.44;62.51;98794.25;3553483;27;20383;-53
2021/04/03 06:55:01;;;;;;;11.07;5.72;;;;;;;6.60;64.26;98803.94;3555325;27;20152;-54
2021/04/03 06:56:45;;;;;;;13.43;7.38;;;;;;;6.59;61.50;98803.91;3551365;27;20043;-55
2021/04/03 06:58:29;;;;;;;15.85;8.25;;;;;;;6.65;65.77;98806.59;3553996;27;20426;-53
2021/04/03 07:00:13;;;;;;;19.42;8.25;;;;;;;6.78;64.45;98808.50;3551214;27;20085;-55
2021/04/03 07:01:56;;;;;;;14.30;7.38;;;;;;;6.94;63.70;98808.72;3554850;27;20046;-55
2021/04/03 07:03:43;;;;;;;15.68;8.23;;;;;;;7.12;62.17;98815.88;3550401;27;20507;-55
2021/04/03 07:05:26;;;;;;;15.55;7.82;;;;;;;7.15;59.31;98810.78;3551868;27;20043;-56
2021/04/03 07:07:08;;;;;;;14.43;8.77;;;;;;;7.10;59.99;98815.88;3554125;27;20434;-56
2021/04/03 07:08:51;;;;;;;18.63;8.50;;;;;;;7.14;61.01;98820.25;3551718;27;20042;-56
2021/04/03 07:10:34;;;;;;;16.13;8.48;;;;;;;7.16;60.84;98820.22;3554693;27;20090;-56
2021/04/03 07:12:17;;;;;;;21.00;7.97;;;;;;;7.19;60.70;98817.69;3550940;27;20467;-57
2021/04/03 07:14:00;;;;;;;15.00;8.00;;;;;;;7.28;61.57;98817.81;3552500;27;20291;-56
2021/04/03 07:15:43;;;;;;;18.30;8.02;;;;;;;7.50;63.13;98818.97;3552075;27;20456;-55
2021/04/03 07:17:24;;;;;;;18.38;8.65;;;;;;;7.62;61.93;98813.94;3551264;27;20083;-57
2021/04/03 07:19:10;;;;;;;19.42;7.50;;;;;;;7.75;60.58;98808.94;3554324;27;20057;-57
2021/04/03 07:20:54;;;;;;;15.95;7.30;;;;;;;7.81;64.38;98824.47;3550984;27;20122;-57
2021/04/03 07:22:36;;;;;;;10.77;6.47;;;;;;;8.03;62.45;98830.75;3554616;27;20499;-56
2021/04/03 07:24:19;;;;;;;11.18;5.95;;;;;;;8.20;58.78;98829.19;3550795;27;20499;-56
2021/04/03 07:26:01;;;;;;;13.17;6.63;;;;;;;8.18;58.00;98825.72;3552116;27;20088;-57
2021/04/03 07:27:45;;;;;;;12.10;6.50;;;;;;;8.07;55.60;98832.50;3553051;27;20054;-57
2021/04/03 07:29:49;;;;;;;12.35;5.97;;;;;;;8.05;59.49;98841.94;3551294;27;20049;-56
2021/04/03 07:31:46;;;;;;;8.57;5.20;;;;;;;8.13;57.99;98835.16;3540991;27;20047;-56
2021/04/03 07:33:27;;;;;;;9.32;5.60;;;;;;;8.24;61.95;98836.97;3554003;27;20054;-55
2021/04/03 07:35:18;;;;;;;8.48;5.35;;;;;;;8.39;58.36;98844.84;3550797;27;20389;-57
2021/04/03 07:36:59;;;;;;;11.48;5.55;;;;;;;8.51;55.55;98842.38;3553197;27;20088;-57
2021/04/03 07:38:41;;;;;;;12.07;6.50;;;;;;;8.68;55.86;98846.84;3550877;27;20039;-55
2021/04/03 07:40:38;;;;;;;10.35;5.90;;;;;;;8.66;54.53;98835.59;3554220;27;20085;-54
2021/04/03 07:42:32;;;;;;;14.57;6.00;;;;;;;8.64;55.59;98845.94;3553530;27;20062;-54
2021/04/03 07:44:14;;;;;;;8.57;5.20;;;;;;;8.63;54.06;98841.63;3550720;27;20649;-55
2021/04/03 07:45:56;;;;;;;10.35;5.70;;;;;;;8.65;59.12;98831.28;3553953;27;20415;-56
2021/04/03 07:47:46;;;;;;;12.10;5.55;;;;;;;8.84;55.27;98843.50;3550688;27;20085;-55
2021/04/03 07:49:32;;;;;;;9.90;6.20;;;;;;;9.11;59.20;98844.53;3554137;27;20075;-55
2021/04/03 07:51:35;;;;;;;9.45;4.90;;;;;;;9.37;55.61;98839.50;3550860;27;20563;-55
2021/04/03 07:53:34;;;;;;;9.98;5.47;;;;;;;9.59;53.74;98843.09;3548991;27;20058;-53
2021/04/03 07:55:32;;;;;;;12.07;5.55;;;;;;;9.68;52.92;98844.84;3554206;27;20046;-52
2021/04/03 07:57:14;;;;;;;6.60;4.45;;;;;;;9.80;51.23;98846.63;3551885;27;20082;-53
2021/04/03 07:58:58;;;;;;;11.05;4.70;;;;;;;9.87;57.61;98854.41;3550547;27;20080;-54
2021/04/03 08:01:00;;;;;;;7.63;4.72;;;;;;;9.93;50.72;98851.00;3539645;28;20145;-53